METAR TAF

[Source: ADDS]
METAR
LFCR 041000Z AUTO 27006KT 9999 OVC009 16/15 Q1015 BECMG SCT006 SCT030TCU =
AMD LFCR 040717Z 0407/0506 14005KT 8000 RA FEW010 BKN040 TEMPO 0407/0410 2000 BKN004 OVC020 BECMG 0410/0412 27010KT 9999 NSW SCT006 SCT030TCU TEMPO 0412/0418 4000 SHRA SCT020 BKN030TCU BECMG 0418/0421 BKN013 BKN040 TEMPO 0500/0506 OVC004 LFBA 041000Z AUTO 26007KT 230V300 9999 -RA BKN014/// BKN028/// OVC035/// ///TCU 20/18 Q1013 TEMPO 27015G25KT 3000 SHRA FEW020CB BKN025TCU =
AMD LFBA 040828Z 0408/0415 27005KT 9999 OVC009 TEMPO 0408/0415 27015G25KT 3000 SHRA FEW020CB BKN025TCU BECMG 0410/0412 BKN025 LFSL 041000Z AUTO 17005KT 130V230 9999 OVC004 17/16 Q1014 BECMG SCT025 =
LFSL 040800Z 0409/0418 17004KT 9999 BKN004 OVC010 TEMPO 0409/0410 4000 -RA BKN002 BECMG 0410/0412 SCT025 TEMPO 0412/0418 -SHRA BKN030TCU PROB40 TEMPO 0412/0415 4000 SHRA BKN020CB
TAF
AMD LFCR 040717Z 0407/0506 14005KT 8000 RA FEW010 BKN040 TEMPO 0407/0410 2000 BKN004 OVC020 BECMG 0410/0412 27010KT 9999 NSW SCT006 SCT030TCU TEMPO 0412/0418 4000 SHRA SCT020 BKN030TCU BECMG 0418/0421 BKN013 BKN040 TEMPO 0500/0506 OVC004 =
AMD LFBA 040828Z 0408/0415 27005KT 9999 OVC009 TEMPO 0408/0415 27015G25KT 3000 SHRA FEW020CB BKN025TCU BECMG 0410/0412 BKN025 =
LFSL 040800Z 0409/0418 17004KT 9999 BKN004 OVC010 TEMPO 0409/0410 4000 -RA BKN002 BECMG 0410/0412 SCT025 TEMPO 0412/0418 -SHRA BKN030TCU PROB40 TEMPO 0412/0415 4000 SHRA BKN020CB =
SR / SS: 04:44 / 19:15 UTC (LFCC 2021-08-04)